Time;durP1;ratioP1;P1;durP2;ratioP2;P2;SDS_P1;SDS_P2;PMS_P1;PMS_P2;Temp;Humidity;BMP_temperature;BMP_pressure;BME280_temperature;BME280_humidity;BME280_pressure;Samples;Min_cycle;Max_cycle;Signal;HPM_P1;HPM_P2
2024/01/27 00:02:22;;;;;;;28.87;5.63;;;5.10;59.60;;;;;;5023948;28;20862;-48
2024/01/27 00:04:50;;;;;;;20.40;4.57;;;5.20;65.80;;;;;;5019995;28;20459;-50
2024/01/27 00:07:17;;;;;;;19.30;5.80;;;5.20;67.10;;;;;;5028492;28;20450;-47
2024/01/27 00:09:44;;;;;;;18.83;5.70;;;5.20;72.90;;;;;;5028343;28;20535;-50
2024/01/27 00:12:10;;;;;;;16.97;4.57;;;5.20;75.00;;;;;;5029527;28;20458;-48
2024/01/27 00:14:38;;;;;;;23.50;5.30;;;5.10;73.20;;;;;;5030270;28;20493;-49
2024/01/27 00:17:04;;;;;;;14.90;3.83;;;5.10;71.20;;;;;;5028474;28;20508;-48
2024/01/27 00:19:31;;;;;;;19.33;4.63;;;5.00;75.30;;;;;;5027589;28;20498;-49
2024/01/27 00:21:59;;;;;;;17.63;3.80;;;5.00;71.10;;;;;;5025504;28;20808;-49
2024/01/27 00:24:26;;;;;;;17.23;3.90;;;4.90;70.60;;;;;;5027497;28;20481;-49
2024/01/27 00:26:52;;;;;;;22.10;4.40;;;5.00;76.80;;;;;;5027369;28;20451;-49
2024/01/27 00:29:19;;;;;;;18.93;4.70;;;5.00;78.30;;;;;;5026924;28;20458;-49
2024/01/27 00:31:45;;;;;;;18.60;4.37;;;5.00;79.20;;;;;;5026430;28;20462;-49
2024/01/27 00:34:12;;;;;;;14.37;3.90;;;5.10;82.40;;;;;;5027829;28;20482;-49
2024/01/27 00:36:39;;;;;;;21.40;4.37;;;5.00;80.90;;;;;;5026787;28;21000;-49
2024/01/27 00:39:07;;;;;;;13.30;4.07;;;5.00;83.50;;;;;;5020187;28;20986;-49
2024/01/27 00:41:33;;;;;;;34.40;6.30;;;5.00;80.80;;;;;;5023165;28;20533;-49
2024/01/27 00:44:00;;;;;;;22.27;4.70;;;5.00;83.00;;;;;;5029583;28;20459;-49
2024/01/27 00:46:26;;;;;;;24.80;4.80;;;4.90;83.00;;;;;;5031494;28;20512;-48
2024/01/27 00:48:53;;;;;;;22.60;5.23;;;5.00;86.40;;;;;;5016646;28;20487;-49
2024/01/27 00:51:19;;;;;;;19.67;4.40;;;5.00;82.50;;;;;;5028682;28;20520;-49
2024/01/27 00:53:46;;;;;;;13.27;4.20;;;4.90;82.40;;;;;;5033810;28;20496;-49
2024/01/27 00:56:14;;;;;;;20.80;4.67;;;4.90;79.60;;;;;;5033149;28;20450;-49
2024/01/27 00:58:41;;;;;;;15.90;4.40;;;4.90;75.60;;;;;;5033396;28;21048;-49
2024/01/27 01:01:08;;;;;;;20.83;4.90;;;4.80;73.60;;;;;;5020884;28;20463;-49
2024/01/27 01:03:34;;;;;;;21.67;5.50;;;4.90;82.10;;;;;;5032713;28;20865;-50
2024/01/27 01:06:01;;;;;;;20.97;6.40;;;5.00;84.60;;;;;;5025270;28;20532;-50
2024/01/27 01:08:28;;;;;;;18.97;4.80;;;4.90;84.20;;;;;;5033368;28;20439;-49
2024/01/27 01:10:54;;;;;;;19.93;5.07;;;4.90;77.40;;;;;;5033223;28;20467;-49
2024/01/27 01:13:22;;;;;;;13.47;5.13;;;4.90;81.80;;;;;;5032774;28;20922;-50
2024/01/27 01:15:49;;;;;;;18.70;6.20;;;4.80;80.40;;;;;;5031017;28;20884;-49
2024/01/27 01:18:15;;;;;;;20.40;5.23;;;4.80;75.60;;;;;;5029965;28;20474;-48
2024/01/27 01:20:42;;;;;;;31.07;6.13;;;4.80;78.20;;;;;;5030691;28;20852;-49
2024/01/27 01:23:09;;;;;;;16.40;5.37;;;4.80;78.40;;;;;;5025592;28;20455;-49
2024/01/27 01:25:35;;;;;;;16.43;4.97;;;4.80;75.30;;;;;;5030844;28;20454;-49
2024/01/27 01:28:03;;;;;;;22.60;5.00;;;4.70;82.30;;;;;;5030192;28;21883;-49
2024/01/27 01:30:31;;;;;;;16.33;4.70;;;4.70;80.20;;;;;;5031888;28;20544;-50
2024/01/27 01:32:57;;;;;;;25.30;5.67;;;4.60;78.10;;;;;;5032316;28;20892;-49
2024/01/27 01:35:24;;;;;;;15.20;4.17;;;4.60;72.30;;;;;;5030530;28;20842;-49
2024/01/27 01:37:51;;;;;;;14.73;4.47;;;4.60;79.40;;;;;;5029631;28;20964;-49
2024/01/27 01:40:17;;;;;;;13.93;4.27;;;4.60;75.60;;;;;;5026832;28;20482;-49
2024/01/27 01:42:44;;;;;;;21.50;4.60;;;4.60;77.20;;;;;;5031705;28;20954;-50
2024/01/27 01:45:12;;;;;;;19.33;3.57;;;4.60;80.60;;;;;;5030309;28;20486;-49
2024/01/27 01:47:40;;;;;;;13.70;4.30;;;4.50;76.80;;;;;;5029779;28;20479;-49
2024/01/27 01:50:08;;;;;;;16.47;4.93;;;4.50;74.50;;;;;;5029625;28;20910;-48
2024/01/27 01:52:34;;;;;;;18.00;4.10;;;4.50;74.40;;;;;;5027398;28;20897;-48
2024/01/27 01:55:01;;;;;;;16.90;4.73;;;4.60;73.00;;;;;;5031321;28;20447;-49
2024/01/27 01:57:27;;;;;;;17.07;4.53;;;4.60;73.60;;;;;;5024123;28;21050;-48
2024/01/27 01:59:54;;;;;;;18.37;4.20;;;4.60;75.90;;;;;;5031844;28;20533;-50
2024/01/27 02:02:21;;;;;;;14.63;4.13;;;4.50;71.10;;;;;;5028639;28;20548;-50
2024/01/27 02:04:49;;;;;;;23.80;5.20;;;4.50;70.70;;;;;;5029828;28;20455;-49
2024/01/27 02:07:16;;;;;;;24.87;4.57;;;4.60;70.20;;;;;;5030377;28;20439;-49
2024/01/27 02:09:43;;;;;;;13.90;4.17;;;4.60;69.20;;;;;;5025651;28;20478;-49
2024/01/27 02:12:10;;;;;;;24.80;5.00;;;4.80;74.90;;;;;;5029616;28;20550;-49
2024/01/27 02:14:37;;;;;;;16.63;4.57;;;4.80;70.90;;;;;;5030367;28;20851;-49
2024/01/27 02:17:04;;;;;;;17.93;4.40;;;4.80;71.90;;;;;;5028979;28;20521;-49
2024/01/27 02:19:30;;;;;;;18.80;5.03;;;4.90;72.80;;;;;;5011104;28;20996;-49
2024/01/27 02:21:58;;;;;;;16.80;4.50;;;4.90;77.00;;;;;;5029325;28;20884;-49
2024/01/27 02:24:28;;;;;;;22.30;5.80;;;4.90;74.10;;;;;;5029245;28;20524;-50
2024/01/27 02:26:54;;;;;;;22.13;5.07;;;4.90;75.60;;;;;;5029635;28;21016;-49
2024/01/27 02:29:21;;;;;;;16.27;5.70;;;4.90;74.30;;;;;;5030855;28;20509;-49
2024/01/27 02:31:48;;;;;;;24.13;5.23;;;5.00;77.70;;;;;;5030374;28;20490;-50
2024/01/27 02:34:14;;;;;;;25.17;5.37;;;5.00;73.70;;;;;;5029075;28;20490;-49
2024/01/27 02:36:43;;;;;;;23.37;5.00;;;5.00;70.10;;;;;;5027460;28;20510;-49
2024/01/27 02:39:10;;;;;;;27.03;5.90;;;4.90;68.50;;;;;;5022463;28;20547;-49
2024/01/27 02:41:39;;;;;;;22.17;5.70;;;4.90;65.40;;;;;;5031371;28;20491;-50
2024/01/27 02:44:05;;;;;;;22.93;5.40;;;5.00;67.70;;;;;;5030904;28;20470;-49
2024/01/27 02:46:32;;;;;;;24.97;7.30;;;4.90;66.30;;;;;;5029915;28;20829;-48
2024/01/27 02:48:59;;;;;;;18.10;4.33;;;4.90;63.00;;;;;;5027915;28;20458;-49
2024/01/27 02:51:25;;;;;;;20.60;4.37;;;5.00;68.00;;;;;;5029284;28;20502;-49
2024/01/27 02:53:52;;;;;;;23.13;5.70;;;5.00;66.80;;;;;;5026550;28;20452;-49
2024/01/27 02:56:18;;;;;;;36.37;8.63;;;5.00;63.60;;;;;;5025525;28;20501;-50
2024/01/27 02:58:46;;;;;;;16.37;5.20;;;5.00;61.20;;;;;;5030285;28;20985;-51
2024/01/27 03:01:13;;;;;;;25.00;5.60;;;5.00;61.10;;;;;;5027880;28;20517;-48
2024/01/27 03:03:39;;;;;;;28.57;5.13;;;4.90;57.90;;;;;;5030474;28;20500;-48
2024/01/27 03:06:06;;;;;;;25.30;5.37;;;4.90;58.70;;;;;;5030515;28;20458;-49
2024/01/27 03:08:32;;;;;;;23.70;5.00;;;4.90;56.00;;;;;;5030681;28;20518;-49
2024/01/27 03:11:00;;;;;;;15.10;3.80;;;4.80;51.60;;;;;;5025022;28;20491;-49
2024/01/27 03:13:26;;;;;;;22.50;5.00;;;4.80;55.80;;;;;;5029504;28;20458;-49
2024/01/27 03:15:55;;;;;;;22.63;6.20;;;4.80;54.10;;;;;;5029622;28;20524;-49
2024/01/27 03:18:22;;;;;;;22.87;5.37;;;4.80;56.90;;;;;;5020647;28;20572;-48
2024/01/27 03:20:48;;;;;;;23.47;5.20;;;4.80;54.50;;;;;;5030200;28;20495;-50
2024/01/27 03:23:15;;;;;;;17.67;4.93;;;4.70;55.50;;;;;;5027031;28;20459;-49
2024/01/27 03:25:42;;;;;;;12.87;4.40;;;4.60;49.60;;;;;;5023360;28;20463;-49
2024/01/27 03:28:08;;;;;;;19.53;4.40;;;4.60;50.70;;;;;;5022931;28;20548;-49
2024/01/27 03:30:35;;;;;;;15.43;3.93;;;4.60;50.90;;;;;;5024393;28;20482;-49
2024/01/27 03:33:03;;;;;;;20.73;5.00;;;4.50;49.30;;;;;;5029129;28;20491;-49
2024/01/27 03:35:29;;;;;;;17.10;4.13;;;4.40;46.50;;;;;;5030547;28;20484;-49
2024/01/27 03:37:56;;;;;;;18.13;4.40;;;4.30;43.40;;;;;;5029236;28;20514;-49
2024/01/27 03:40:22;;;;;;;17.97;4.00;;;4.20;41.80;;;;;;5028745;28;20487;-50
2024/01/27 03:42:49;;;;;;;16.50;3.90;;;4.20;40.70;;;;;;5025656;28;20486;-49
2024/01/27 03:45:16;;;;;;;17.97;4.10;;;4.20;34.50;;;;;;5027859;28;20578;-48
2024/01/27 03:47:42;;;;;;;13.83;4.23;;;4.10;35.20;;;;;;5020334;28;20495;-50
2024/01/27 03:50:11;;;;;;;21.47;4.33;;;4.20;36.20;;;;;;5026728;28;20568;-49
2024/01/27 03:52:36;;;;;;;16.53;4.27;;;4.20;36.60;;;;;;5027302;28;20538;-49
2024/01/27 03:55:05;;;;;;;16.30;3.53;;;4.10;32.30;;;;;;5028293;28;20538;-49
2024/01/27 03:57:31;;;;;;;15.63;3.70;;;4.00;27.40;;;;;;5019304;28;20204;-50
2024/01/27 03:59:58;;;;;;;16.50;4.47;;;4.00;25.30;;;;;;5029875;28;20537;-49
2024/01/27 04:02:24;;;;;;;27.30;5.60;;;4.00;75.20;;;;;;5029847;28;20447;-49
2024/01/27 04:04:51;;;;;;;16.87;4.00;;;3.90;97.00;;;;;;5022374;28;20505;-49
2024/01/27 04:07:19;;;;;;;17.00;4.00;;;3.90;99.90;;;;;;5029713;28;20544;-49
2024/01/27 04:09:45;;;;;;;22.73;4.53;;;3.90;99.90;;;;;;5028554;28;20471;-49
2024/01/27 04:12:12;;;;;;;14.23;3.97;;;3.90;99.90;;;;;;5028951;28;20990;-49
2024/01/27 04:14:39;;;;;;;14.20;4.07;;;3.90;99.90;;;;;;5029908;28;21033;-49
2024/01/27 04:17:05;;;;;;;19.17;4.27;;;3.80;99.90;;;;;;5031246;28;20443;-49
2024/01/27 04:19:32;;;;;;;15.90;4.03;;;4.00;99.90;;;;;;5032527;28;20920;-49
2024/01/27 04:21:58;;;;;;;18.03;4.47;;;4.10;99.90;;;;;;5028269;28;20836;-49
2024/01/27 04:24:26;;;;;;;17.90;4.73;;;4.20;99.90;;;;;;5032376;28;21478;-49
2024/01/27 04:26:53;;;;;;;25.03;4.73;;;4.20;99.90;;;;;;5030402;28;20528;-49
2024/01/27 04:29:19;;;;;;;24.87;4.70;;;4.30;99.90;;;;;;5032128;28;20482;-48
2024/01/27 04:31:46;;;;;;;22.83;4.70;;;4.30;91.20;;;;;;5034967;28;20513;-49
2024/01/27 04:34:12;;;;;;;27.97;4.40;;;4.30;99.90;;;;;;5031853;28;21022;-50
2024/01/27 04:36:40;;;;;;;25.80;5.57;;;4.30;99.90;;;;;;5033539;28;20971;-49
2024/01/27 04:39:07;;;;;;;21.77;4.77;;;4.30;99.90;;;;;;5028098;28;20486;-49
2024/01/27 04:41:35;;;;;;;21.07;4.97;;;4.40;99.90;;;;;;5032012;28;20874;-48
2024/01/27 04:44:01;;;;;;;23.87;5.27;;;4.30;99.90;;;;;;5033165;28;20459;-50
2024/01/27 04:46:28;;;;;;;25.00;6.20;;;4.30;99.90;;;;;;5033283;28;21031;-49
2024/01/27 04:48:55;;;;;;;13.87;3.77;;;4.40;99.90;;;;;;5032625;28;20880;-49
2024/01/27 04:51:22;;;;;;;24.43;5.30;;;4.30;99.90;;;;;;5032054;28;20479;-49
2024/01/27 04:53:48;;;;;;;19.67;4.80;;;4.30;99.90;;;;;;5032101;28;20458;-49
2024/01/27 04:56:15;;;;;;;17.60;4.50;;;4.40;99.90;;;;;;5029920;28;20463;-50
2024/01/27 04:58:43;;;;;;;18.73;4.23;;;4.30;99.90;;;;;;5026339;28;20506;-50
2024/01/27 05:01:09;;;;;;;19.60;3.93;;;4.30;99.90;;;;;;5029498;28;21023;-49
2024/01/27 05:03:36;;;;;;;24.80;4.93;;;4.30;99.90;;;;;;5029455;28;20501;-50
2024/01/27 05:06:03;;;;;;;19.33;4.20;;;4.30;99.90;;;;;;5031254;28;20760;-50
2024/01/27 05:08:29;;;;;;;14.40;4.03;;;4.30;99.90;;;;;;5029682;28;20847;-49
2024/01/27 05:10:56;;;;;;;20.73;4.43;;;4.20;99.90;;;;;;5028096;28;20462;-49
2024/01/27 05:13:23;;;;;;;19.37;4.00;;;4.20;99.90;;;;;;5030504;28;20512;-50
2024/01/27 05:15:51;;;;;;;16.47;4.80;;;4.20;99.90;;;;;;5028410;28;20877;-49
2024/01/27 05:18:17;;;;;;;21.97;5.77;;;4.20;99.90;;;;;;5024455;28;20489;-56
2024/01/27 05:20:44;;;;;;;22.20;4.27;;;4.10;99.90;;;;;;5022974;28;20896;-57
2024/01/27 05:23:10;;;;;;;15.80;3.80;;;4.10;99.90;;;;;;5030923;28;20467;-57
2024/01/27 05:25:37;;;;;;;20.27;4.80;;;4.10;99.90;;;;;;5024838;28;20458;-56
2024/01/27 05:28:04;;;;;;;20.53;4.30;;;4.10;99.90;;;;;;5020809;28;20477;-56
2024/01/27 05:30:31;;;;;;;22.67;4.60;;;4.10;99.90;;;;;;5027435;28;20506;-56
2024/01/27 05:32:59;;;;;;;15.47;3.80;;;4.20;99.90;;;;;;5028958;28;20490;-57
2024/01/27 05:35:25;;;;;;;22.90;4.93;;;4.10;99.90;;;;;;5032582;28;20950;-56
2024/01/27 05:37:52;;;;;;;25.60;5.50;;;4.20;99.90;;;;;;5032570;28;20881;-56
2024/01/27 05:40:18;;;;;;;24.47;4.30;;;4.20;99.90;;;;;;5032311;28;20483;-56
2024/01/27 05:42:45;;;;;;;19.47;4.30;;;4.20;99.90;;;;;;5025320;28;20462;-56
2024/01/27 05:45:12;;;;;;;22.60;4.20;;;4.30;99.90;;;;;;5026016;28;20473;-57
2024/01/27 05:47:39;;;;;;;21.40;4.37;;;4.30;99.90;;;;;;5027919;28;21008;-56
2024/01/27 05:50:08;;;;;;;20.10;4.60;;;4.30;99.90;;;;;;5029113;28;20971;-56
2024/01/27 05:52:35;;;;;;;24.83;6.20;;;4.30;99.90;;;;;;5026077;28;20961;-56
2024/01/27 05:55:02;;;;;;;19.03;4.03;;;4.30;99.90;;;;;;5028567;28;20521;-56
2024/01/27 05:57:29;;;;;;;23.67;4.40;;;4.30;99.90;;;;;;5029569;28;20459;-56
2024/01/27 05:59:55;;;;;;;23.47;4.87;;;4.30;99.90;;;;;;5031757;28;20973;-56
2024/01/27 06:02:22;;;;;;;15.47;4.50;;;4.30;99.90;;;;;;5026273;28;20961;-57
2024/01/27 06:04:48;;;;;;;26.57;4.97;;;4.40;99.90;;;;;;5030976;28;20443;-56
2024/01/27 06:07:16;;;;;;;18.43;4.67;;;4.30;99.90;;;;;;5031216;28;20463;-58
2024/01/27 06:09:43;;;;;;;18.50;5.00;;;4.40;99.90;;;;;;5031700;28;20521;-56
2024/01/27 06:12:09;;;;;;;28.50;5.63;;;4.40;99.90;;;;;;5029806;28;20513;-56
2024/01/27 06:14:36;;;;;;;22.23;4.63;;;4.40;99.90;;;;;;5031255;28;20505;-56
2024/01/27 06:17:05;;;;;;;23.93;5.60;;;4.40;99.90;;;;;;5029757;28;20504;-56
2024/01/27 06:19:32;;;;;;;15.67;4.17;;;4.40;99.90;;;;;;5029732;28;20544;-56
2024/01/27 06:21:58;;;;;;;25.00;4.33;;;4.40;99.90;;;;;;5020338;28;20839;-57
2024/01/27 06:24:26;;;;;;;18.43;4.70;;;4.40;99.90;;;;;;5029647;28;20455;-56
2024/01/27 06:26:53;;;;;;;13.67;3.73;;;4.40;99.90;;;;;;5024437;28;20513;-56
2024/01/27 06:29:19;;;;;;;24.60;4.90;;;4.40;99.90;;;;;;5027461;28;21005;-57
2024/01/27 06:31:46;;;;;;;28.10;5.67;;;4.40;99.90;;;;;;5027374;28;20462;-57
2024/01/27 06:34:12;;;;;;;29.63;5.33;;;4.40;99.90;;;;;;5022951;28;20450;-56
2024/01/27 06:36:39;;;;;;;23.13;5.67;;;4.40;99.90;;;;;;5021863;28;20455;-56
2024/01/27 06:39:07;;;;;;;19.50;4.80;;;4.40;99.90;;;;;;5026920;28;20505;-56
2024/01/27 06:41:36;;;;;;;21.27;5.10;;;4.40;99.90;;;;;;5012825;28;20466;-56
2024/01/27 06:44:04;;;;;;;19.67;4.60;;;4.40;99.90;;;;;;5023413;28;20455;-57
2024/01/27 06:46:30;;;;;;;18.23;4.23;;;4.30;99.90;;;;;;5018178;28;20458;-56
2024/01/27 06:48:57;;;;;;;29.93;4.83;;;4.40;99.90;;;;;;5025178;28;20481;-57
2024/01/27 06:51:23;;;;;;;20.33;5.00;;;4.40;99.90;;;;;;5021229;28;20479;-56
2024/01/27 06:53:50;;;;;;;20.00;5.57;;;4.40;99.90;;;;;;5024751;28;20493;-56
2024/01/27 06:56:17;;;;;;;15.50;3.60;;;4.40;99.90;;;;;;5027015;28;20469;-56
2024/01/27 06:58:45;;;;;;;18.53;4.40;;;4.40;99.90;;;;;;5026884;28;20482;-56
2024/01/27 07:01:12;;;;;;;22.33;4.47;;;4.40;99.90;;;;;;5018280;28;20510;-56
2024/01/27 07:03:39;;;;;;;19.37;4.90;;;4.40;99.90;;;;;;5024263;28;20466;-56
2024/01/27 07:06:06;;;;;;;16.53;4.30;;;4.40;99.90;;;;;;5025279;28;20912;-58
2024/01/27 07:08:33;;;;;;;21.63;4.93;;;4.40;99.90;;;;;;5023581;28;20544;-56
2024/01/27 07:10:59;;;;;;;17.63;4.60;;;4.40;99.90;;;;;;5026547;28;20478;-54
2024/01/27 07:13:29;;;;;;;14.27;3.90;;;4.40;99.90;;;;;;5021368;28;20525;-56
2024/01/27 07:15:57;;;;;;;19.83;4.57;;;4.40;99.90;;;;;;5022733;28;20455;-56
2024/01/27 07:18:24;;;;;;;22.10;5.60;;;4.40;99.90;;;;;;5020609;28;20827;-56
2024/01/27 07:20:51;;;;;;;27.50;5.03;;;4.50;99.90;;;;;;5025966;28;20502;-56
2024/01/27 07:23:17;;;;;;;20.43;5.40;;;4.40;99.90;;;;;;5024189;28;21195;-57
2024/01/27 07:25:44;;;;;;;20.20;4.87;;;4.50;99.90;;;;;;5023416;28;20469;-56
2024/01/27 07:28:11;;;;;;;26.47;4.90;;;4.40;99.90;;;;;;5025591;28;20879;-56
2024/01/27 07:30:38;;;;;;;20.67;5.37;;;4.40;99.90;;;;;;5014177;28;20503;-56
2024/01/27 07:33:06;;;;;;;17.57;5.17;;;4.40;99.90;;;;;;5016659;28;20451;-56
2024/01/27 07:35:33;;;;;;;16.90;4.23;;;4.50;99.90;;;;;;5031098;28;20980;-56
2024/01/27 07:37:59;;;;;;;19.70;5.00;;;4.50;99.90;;;;;;5022141;28;20455;-57
2024/01/27 07:40:26;;;;;;;17.13;4.23;;;4.50;99.90;;;;;;5031572;28;20489;-57
2024/01/27 07:42:52;;;;;;;14.83;4.60;;;4.60;99.90;;;;;;5025663;28;20501;-56
2024/01/27 07:45:19;;;;;;;15.80;4.07;;;4.50;99.90;;;;;;5019945;28;20620;-56
2024/01/27 07:47:45;;;;;;;18.63;5.23;;;4.60;99.90;;;;;;5029602;28;20450;-56
2024/01/27 07:50:13;;;;;;;14.80;4.30;;;4.60;99.90;;;;;;5029741;28;20463;-56
2024/01/27 07:52:40;;;;;;;20.03;4.60;;;4.60;99.90;;;;;;5043425;28;20469;-57
2024/01/27 07:55:07;;;;;;;22.30;3.97;;;4.60;99.90;;;;;;5053712;28;20435;-57
2024/01/27 07:57:35;;;;;;;20.43;4.83;;;4.70;99.90;;;;;;5045068;28;20562;-57
2024/01/27 08:00:01;;;;;;;19.80;4.63;;;4.70;99.90;;;;;;5041508;28;20497;-56
2024/01/27 08:02:28;;;;;;;17.87;3.80;;;4.70;99.90;;;;;;5041549;28;20447;-61
2024/01/27 08:04:54;;;;;;;36.47;4.93;;;4.80;99.90;;;;;;5029136;28;21031;-57
2024/01/27 08:07:22;;;;;;;25.73;4.97;;;4.80;99.90;;;;;;5032148;28;20472;-58
2024/01/27 08:09:49;;;;;;;20.53;4.40;;;4.90;99.90;;;;;;5032000;28;20509;-55
2024/01/27 08:12:15;;;;;;;12.40;3.80;;;4.90;99.90;;;;;;5032890;28;20458;-56
2024/01/27 08:14:42;;;;;;;16.63;3.80;;;4.90;99.90;;;;;;5028966;28;20462;-55
2024/01/27 08:17:09;;;;;;;19.23;4.47;;;4.90;99.90;;;;;;5027641;28;20548;-56
2024/01/27 08:19:36;;;;;;;18.07;4.87;;;5.00;99.90;;;;;;5032264;28;20486;-57
2024/01/27 08:22:03;;;;;;;16.57;4.30;;;5.00;99.90;;;;;;5029433;28;21139;-57
2024/01/27 08:24:31;;;;;;;18.17;4.80;;;5.10;99.90;;;;;;5033580;28;20692;-57
2024/01/27 08:27:00;;;;;;;25.43;4.10;;;5.10;99.90;;;;;;5029872;28;20544;-58
2024/01/27 08:29:27;;;;;;;17.43;4.20;;;5.10;99.90;;;;;;5030226;28;20478;-57
2024/01/27 08:31:53;;;;;;;19.10;4.30;;;5.10;99.90;;;;;;5030993;28;20584;-57
2024/01/27 08:34:20;;;;;;;25.67;4.53;;;5.10;99.90;;;;;;5026341;28;20532;-55
2024/01/27 08:36:47;;;;;;;21.20;5.03;;;5.10;99.90;;;;;;5029866;28;20458;-57
2024/01/27 08:39:13;;;;;;;20.33;4.50;;;5.10;99.90;;;;;;5031701;28;20482;-56
2024/01/27 08:41:41;;;;;;;17.67;4.93;;;5.20;99.90;;;;;;5030404;28;20458;-56
2024/01/27 08:44:08;;;;;;;20.40;4.37;;;5.30;99.90;;;;;;5024496;28;20964;-56
2024/01/27 08:46:34;;;;;;;26.47;4.87;;;5.30;99.90;;;;;;5028576;28;20847;-56
2024/01/27 08:49:01;;;;;;;21.20;4.37;;;5.40;99.90;;;;;;5028286;28;20502;-55
2024/01/27 08:51:27;;;;;;;20.23;4.43;;;5.40;99.90;;;;;;5030887;28;20528;-56
2024/01/27 08:53:54;;;;;;;23.17;5.13;;;5.40;99.90;;;;;;5029431;28;20487;-57
2024/01/27 08:56:21;;;;;;;20.90;4.53;;;5.50;99.90;;;;;;5026340;28;20458;-56
2024/01/27 08:58:48;;;;;;;23.90;4.70;;;5.40;99.90;;;;;;5031044;28;20464;-56
2024/01/27 09:01:17;;;;;;;15.47;3.80;;;5.50;99.90;;;;;;5017845;28;20487;-57
2024/01/27 09:03:43;;;;;;;21.73;3.97;;;5.50;99.90;;;;;;5020625;28;20524;-56
2024/01/27 09:06:10;;;;;;;21.10;4.27;;;5.50;99.90;;;;;;5029958;28;20463;-57
2024/01/27 09:08:37;;;;;;;15.87;4.27;;;5.60;99.90;;;;;;5032158;28;20443;-56
2024/01/27 09:11:04;;;;;;;15.50;4.20;;;5.60;99.90;;;;;;5024714;28;20464;-55
2024/01/27 09:13:31;;;;;;;18.23;5.20;;;5.60;99.90;;;;;;5022772;28;21151;-56
2024/01/27 09:15:59;;;;;;;20.97;4.10;;;5.70;94.40;;;;;;5027060;28;20463;-56
2024/01/27 09:18:26;;;;;;;21.43;4.07;;;5.70;20.00;;;;;;5025996;28;20462;-55
2024/01/27 09:20:52;;;;;;;26.37;4.80;;;5.70;21.00;;;;;;5027832;28;20518;-56
2024/01/27 09:23:19;;;;;;;18.83;4.23;;;5.80;21.30;;;;;;5018712;28;20998;-56
2024/01/27 09:25:46;;;;;;;21.53;4.50;;;5.80;21.80;;;;;;5029299;28;20512;-57
2024/01/27 09:28:12;;;;;;;26.77;5.43;;;5.80;27.00;;;;;;5018774;28;20552;-56
2024/01/27 09:30:39;;;;;;;19.17;4.30;;;5.80;28.80;;;;;;5025223;28;20525;-56
2024/01/27 09:33:07;;;;;;;19.40;4.30;;;5.90;34.50;;;;;;5022561;28;20517;-56
2024/01/27 09:35:34;;;;;;;27.00;5.30;;;5.90;30.10;;;;;;5031550;28;20455;-56
2024/01/27 09:38:00;;;;;;;15.90;4.37;;;5.90;35.50;;;;;;5031486;28;20490;-57
2024/01/27 09:40:27;;;;;;;17.27;4.67;;;6.00;28.90;;;;;;5031314;28;20490;-56
2024/01/27 09:42:53;;;;;;;14.47;3.70;;;6.00;32.30;;;;;;5031035;28;20443;-56
2024/01/27 09:45:22;;;;;;;31.63;4.30;;;6.00;41.60;;;;;;5025687;28;20471;-56
2024/01/27 09:47:50;;;;;;;20.70;4.40;;;6.10;38.30;;;;;;5020861;28;20490;-56
2024/01/27 09:50:19;;;;;;;31.50;4.97;;;6.20;44.30;;;;;;5022648;28;20499;-56
2024/01/27 09:52:45;;;;;;;17.80;4.37;;;6.10;44.90;;;;;;5027031;28;20546;-56
2024/01/27 09:55:12;;;;;;;17.00;4.63;;;6.20;44.70;;;;;;5031469;28;20827;-57
2024/01/27 09:57:40;;;;;;;22.57;4.90;;;6.30;46.40;;;;;;5032975;28;20556;-57
2024/01/27 10:00:11;;;;;;;14.07;3.70;;;6.30;48.10;;;;;;5031939;28;21000;-56
2024/01/27 10:02:39;;;;;;;23.60;4.80;;;6.40;47.40;;;;;;5029340;28;20497;-56
2024/01/27 10:05:08;;;;;;;22.13;5.40;;;6.40;51.80;;;;;;5019971;28;20479;-58
2024/01/27 10:07:36;;;;;;;25.03;5.27;;;6.40;56.80;;;;;;5030957;28;20439;-57
2024/01/27 10:10:02;;;;;;;14.47;3.67;;;6.40;55.30;;;;;;5024964;28;20470;-56
2024/01/27 10:12:29;;;;;;;30.03;5.47;;;6.50;61.20;;;;;;5032420;28;20520;-56
2024/01/27 10:14:56;;;;;;;17.23;3.83;;;6.50;61.50;;;;;;5025162;28;20466;-55
2024/01/27 10:17:25;;;;;;;17.07;6.10;;;6.50;67.30;;;;;;5031183;28;20994;-56
2024/01/27 10:20:01;;;;;;;25.37;6.70;;;6.60;64.30;;;;;;5026397;28;21054;-57
2024/01/27 10:22:27;;;;;;;15.43;4.00;;;6.60;71.30;;;;;;5026759;28;20808;-56
2024/01/27 10:24:56;;;;;;;16.70;4.63;;;6.70;71.00;;;;;;5027558;28;20506;-57
2024/01/27 10:27:22;;;;;;;21.00;4.47;;;6.80;69.20;;;;;;5029642;28;20443;-56
2024/01/27 10:29:53;;;;;;;23.30;4.03;;;6.80;70.80;;;;;;5020328;28;20596;-57
2024/01/27 10:32:20;;;;;;;33.67;5.27;;;6.80;70.90;;;;;;5028059;28;20454;-56
2024/01/27 10:34:46;;;;;;;22.70;4.80;;;6.80;77.40;;;;;;5030326;28;20496;-56
2024/01/27 10:37:13;;;;;;;16.13;5.13;;;6.80;73.30;;;;;;5025056;28;20490;-55
2024/01/27 10:39:40;;;;;;;21.20;4.60;;;6.90;73.10;;;;;;5031728;28;20554;-55
2024/01/27 10:42:10;;;;;;;17.13;4.30;;;6.80;73.00;;;;;;5032334;28;20451;-57
2024/01/27 10:44:38;;;;;;;30.67;5.07;;;6.80;76.10;;;;;;5030673;28;20510;-56
2024/01/27 10:47:07;;;;;;;17.80;4.70;;;6.70;72.10;;;;;;5029127;28;20463;-55
2024/01/27 10:49:37;;;;;;;16.10;4.40;;;6.60;71.60;;;;;;5025547;28;20474;-56
2024/01/27 10:52:11;;;;;;;17.40;4.60;;;6.60;67.20;;;;;;5031902;28;20509;-58
2024/01/27 10:54:39;;;;;;;19.90;4.30;;;6.70;73.70;;;;;;5020110;28;20984;-58
2024/01/27 10:57:08;;;;;;;27.10;6.33;;;6.70;78.30;;;;;;5031664;28;20462;-57
2024/01/27 10:59:36;;;;;;;22.67;5.77;;;6.70;76.50;;;;;;5019547;28;20482;-56
2024/01/27 11:02:05;;;;;;;21.37;4.57;;;6.60;74.50;;;;;;5025436;28;20487;-56
2024/01/27 11:04:35;;;;;;;14.70;4.50;;;6.70;72.00;;;;;;5038607;28;20509;-55
2024/01/27 11:07:03;;;;;;;16.90;4.13;;;6.80;71.90;;;;;;5021435;28;20912;-57
2024/01/27 11:09:31;;;;;;;17.13;3.90;;;6.80;77.00;;;;;;5025081;28;20478;-57
2024/01/27 11:11:59;;;;;;;13.03;3.97;;;6.80;73.90;;;;;;5028461;28;20455;-56
2024/01/27 11:14:27;;;;;;;14.80;4.53;;;6.90;74.50;;;;;;5028778;28;20877;-58
2024/01/27 11:16:56;;;;;;;13.90;4.80;;;6.70;78.70;;;;;;5030592;28;20472;-56
2024/01/27 11:19:23;;;;;;;32.73;6.30;;;6.80;80.30;;;;;;5024766;28;20467;-55
2024/01/27 11:21:59;;;;;;;29.63;5.03;;;6.80;83.80;;;;;;5029164;28;20490;-56
2024/01/27 11:24:26;;;;;;;23.60;4.90;;;6.80;80.00;;;;;;5021989;28;20509;-56
2024/01/27 11:27:01;;;;;;;14.67;4.30;;;6.70;80.60;;;;;;5027028;28;20517;-56
2024/01/27 11:29:29;;;;;;;18.77;4.93;;;6.90;83.30;;;;;;5025681;28;20972;-48
2024/01/27 11:31:56;;;;;;;21.07;4.27;;;6.90;84.20;;;;;;5023865;28;20455;-53
2024/01/27 11:34:23;;;;;;;12.40;4.23;;;6.80;81.10;;;;;;5029132;28;20880;-53
2024/01/27 11:36:50;;;;;;;12.80;3.93;;;6.90;86.50;;;;;;5025512;28;20528;-53
2024/01/27 11:39:27;;;;;;;13.63;3.37;;;7.00;91.20;;;;;;5029118;28;20501;-52
2024/01/27 11:41:54;;;;;;;18.07;4.60;;;7.00;92.90;;;;;;5023248;28;20494;-53
2024/01/27 11:44:21;;;;;;;14.97;4.07;;;6.90;89.10;;;;;;5025854;28;20474;-53
2024/01/27 11:46:49;;;;;;;19.77;3.73;;;6.70;93.30;;;;;;5026261;28;20462;-53
2024/01/27 11:49:17;;;;;;;14.83;4.20;;;6.90;94.10;;;;;;5028649;28;20501;-53
2024/01/27 11:51:44;;;;;;;21.37;4.83;;;6.90;89.80;;;;;;5021117;28;20456;-53
2024/01/27 11:54:11;;;;;;;16.47;4.00;;;7.00;90.50;;;;;;5023888;28;20521;-51
2024/01/27 11:56:38;;;;;;;11.30;3.87;;;7.10;92.30;;;;;;5022658;28;20738;-53
2024/01/27 11:59:04;;;;;;;23.03;5.73;;;7.30;97.10;;;;;;5024183;28;20509;-53
2024/01/27 12:01:31;;;;;;;16.93;4.73;;;7.30;97.60;;;;;;5023128;28;20504;-52
2024/01/27 12:03:59;;;;;;;20.67;4.80;;;7.10;98.40;;;;;;5027432;28;20490;-52
2024/01/27 12:06:26;;;;;;;23.33;4.60;;;7.20;96.70;;;;;;5028291;28;20459;-53
2024/01/27 12:08:55;;;;;;;16.17;5.40;;;7.00;96.50;;;;;;5028085;28;20458;-53
2024/01/27 12:11:22;;;;;;;14.93;4.40;;;6.90;97.90;;;;;;5023823;28;20895;-52
2024/01/27 12:13:49;;;;;;;12.13;3.40;;;6.80;96.20;;;;;;5024833;28;20462;-52
2024/01/27 12:16:16;;;;;;;17.70;4.10;;;6.80;90.60;;;;;;5027401;28;20492;-52
2024/01/27 12:18:43;;;;;;;11.73;3.80;;;6.90;90.10;;;;;;5024543;28;21084;-53
2024/01/27 12:21:11;;;;;;;18.70;4.67;;;6.90;91.80;;;;;;5026940;28;20526;-53
2024/01/27 12:23:51;;;;;;;15.13;4.30;;;6.80;88.40;;;;;;5025778;28;20840;-52
2024/01/27 12:26:18;;;;;;;20.97;4.97;;;6.90;86.20;;;;;;5023094;28;20504;-52
2024/01/27 12:28:46;;;;;;;19.00;4.50;;;6.80;80.40;;;;;;5023580;28;20521;-52
2024/01/27 12:31:13;;;;;;;21.90;4.50;;;6.80;75.70;;;;;;5018883;28;20578;-53
2024/01/27 12:33:42;;;;;;;20.77;5.80;;;6.80;76.00;;;;;;5028532;28;20486;-52
2024/01/27 12:36:10;;;;;;;23.90;5.97;;;6.70;63.10;;;;;;5022193;28;20955;-53
2024/01/27 12:38:38;;;;;;;19.23;4.10;;;6.60;61.90;;;;;;5026230;28;20458;-53
2024/01/27 12:41:04;;;;;;;20.93;4.80;;;6.50;50.20;;;;;;5027985;28;20554;-53
2024/01/27 12:43:31;;;;;;;15.93;4.73;;;6.60;52.70;;;;;;5026872;28;20764;-53
2024/01/27 12:45:58;;;;;;;14.83;4.60;;;6.70;55.50;;;;;;5028555;28;20458;-53
2024/01/27 12:48:24;;;;;;;30.20;5.30;;;6.90;58.40;;;;;;5028039;28;20498;-53